createdAt,value
2022-10-22T00:00:46.712Z,975.26
2022-10-22T00:01:46.694Z,975.24
2022-10-22T00:02:46.769Z,975.16
2022-10-22T00:03:46.669Z,975.23
2022-10-22T00:04:46.669Z,975.10
2022-10-22T00:05:46.637Z,975.09
2022-10-22T00:06:46.633Z,975.05
2022-10-22T00:07:46.611Z,975.09
2022-10-22T00:08:46.632Z,975.03
2022-10-22T00:09:46.581Z,975.06
2022-10-22T00:10:46.578Z,975.05
2022-10-22T00:11:46.568Z,975.06
2022-10-22T00:12:46.550Z,975.04
2022-10-22T00:14:46.516Z,975.11
2022-10-22T00:15:46.512Z,975.20
2022-10-22T00:16:46.494Z,975.15
2022-10-22T00:17:46.473Z,975.12
2022-10-22T00:18:46.469Z,975.13
2022-10-22T00:19:46.450Z,975.13
2022-10-22T00:20:46.440Z,975.11
2022-10-22T00:21:46.425Z,975.17
2022-10-22T00:22:46.491Z,975.21
2022-10-22T00:23:46.401Z,975.18
2022-10-22T00:24:46.377Z,975.08
2022-10-22T00:25:46.374Z,975.07
2022-10-22T00:26:46.352Z,975.07
2022-10-22T00:27:46.340Z,975.11
2022-10-22T00:28:46.330Z,975.13
2022-10-22T00:29:46.342Z,975.15
2022-10-22T00:30:46.298Z,975.08
2022-10-22T00:31:46.362Z,975.05
2022-10-22T00:32:46.275Z,975.07
2022-10-22T00:33:46.263Z,975.05
2022-10-22T00:34:46.243Z,975.05
2022-10-22T00:35:46.238Z,974.97
2022-10-22T00:36:46.224Z,975.04
2022-10-22T00:37:46.206Z,975.04
2022-10-22T00:38:46.193Z,974.96
2022-10-22T00:39:46.182Z,975.01
2022-10-22T00:40:46.164Z,974.92
2022-10-22T00:41:46.153Z,974.87
2022-10-22T00:42:46.143Z,974.92
2022-10-22T00:43:46.138Z,974.91
2022-10-22T00:44:46.112Z,974.88
2022-10-22T00:45:46.121Z,974.88
2022-10-22T00:46:46.081Z,975.00
2022-10-22T00:47:46.080Z,974.82
2022-10-22T00:48:46.058Z,974.90
2022-10-22T00:49:46.049Z,974.87
2022-10-22T00:50:46.035Z,974.88
2022-10-22T00:51:46.021Z,974.95
2022-10-22T00:52:46.001Z,974.97
2022-10-22T00:53:45.995Z,974.97
2022-10-22T00:54:45.971Z,975.07
2022-10-22T00:55:45.965Z,975.04
2022-10-22T00:56:45.945Z,975.13
2022-10-22T00:57:45.939Z,975.13
2022-10-22T00:58:45.918Z,975.19
2022-10-22T00:59:45.916Z,975.16
2022-10-22T01:00:45.957Z,975.09
2022-10-22T01:01:45.905Z,975.14
2022-10-22T01:02:45.872Z,975.20
2022-10-22T01:03:45.858Z,975.20
2022-10-22T01:04:45.867Z,975.19
2022-10-22T01:05:45.830Z,975.21
2022-10-22T01:06:45.808Z,975.24
2022-10-22T01:07:45.808Z,975.31
2022-10-22T01:08:45.838Z,975.33
2022-10-22T01:09:45.779Z,975.34
2022-10-22T01:10:45.757Z,975.37
2022-10-22T01:11:45.749Z,975.39
2022-10-22T01:12:45.738Z,975.37
2022-10-22T01:13:45.818Z,975.35
2022-10-22T01:14:45.703Z,975.39
2022-10-22T01:15:45.691Z,975.30
2022-10-22T01:16:45.682Z,975.32
2022-10-22T01:17:45.687Z,975.33
2022-10-22T01:18:45.653Z,975.30
2022-10-22T01:19:45.640Z,975.28
2022-10-22T01:20:45.626Z,975.27
2022-10-22T01:21:45.611Z,975.19
2022-10-22T01:22:45.589Z,975.25
2022-10-22T01:23:45.584Z,975.30
2022-10-22T01:24:45.573Z,975.31
2022-10-22T01:25:45.559Z,975.38
2022-10-22T01:26:45.536Z,975.34
2022-10-22T01:27:45.524Z,975.38
2022-10-22T01:28:45.516Z,975.39
2022-10-22T01:29:45.503Z,975.34
2022-10-22T01:30:45.481Z,975.36
2022-10-22T01:31:45.478Z,975.26
2022-10-22T01:32:45.460Z,975.28
2022-10-22T01:33:45.473Z,975.32
2022-10-22T01:34:45.429Z,975.30
2022-10-22T01:35:45.417Z,975.18
2022-10-22T01:36:45.401Z,975.17
2022-10-22T01:37:45.392Z,975.08
2022-10-22T01:38:45.375Z,975.02
2022-10-22T01:39:45.369Z,975.01
2022-10-22T01:40:45.346Z,975.02
2022-10-22T01:41:45.339Z,975.01
2022-10-22T01:42:45.317Z,975.01
2022-10-22T01:43:45.312Z,974.93
2022-10-22T01:44:45.297Z,974.91
2022-10-22T01:45:45.278Z,974.84
2022-10-22T01:46:45.270Z,974.86
2022-10-22T01:47:45.255Z,974.85
2022-10-22T01:48:45.248Z,974.81
2022-10-22T01:49:45.256Z,974.74
2022-10-22T01:50:45.217Z,974.69
2022-10-22T01:51:45.197Z,974.61
2022-10-22T01:52:45.190Z,974.58
2022-10-22T01:54:45.164Z,974.47
2022-10-22T01:55:45.143Z,974.45
2022-10-22T01:56:45.128Z,974.51
2022-10-22T01:57:45.120Z,974.55
2022-10-22T01:58:45.218Z,974.54
2022-10-22T01:59:45.092Z,974.54
2022-10-22T02:00:45.132Z,974.54
2022-10-22T02:01:45.066Z,974.57
2022-10-22T02:02:45.071Z,974.60
2022-10-22T02:03:45.043Z,974.66
2022-10-22T02:04:45.019Z,974.69
2022-10-22T02:05:45.038Z,974.67
2022-10-22T02:06:44.992Z,974.68
2022-10-22T02:07:44.984Z,974.76
2022-10-22T02:08:45.082Z,974.73
2022-10-22T02:09:44.949Z,974.78
2022-10-22T02:10:44.935Z,974.74
2022-10-22T02:11:44.925Z,974.79
2022-10-22T02:12:44.910Z,974.73
2022-10-22T02:13:44.901Z,974.73
2022-10-22T02:14:44.891Z,974.75
2022-10-22T02:15:44.925Z,974.84
2022-10-22T02:16:44.859Z,974.99
2022-10-22T02:17:44.847Z,975.05
2022-10-22T02:18:44.830Z,975.09
2022-10-22T02:19:44.823Z,975.13
2022-10-22T02:20:44.802Z,975.12
2022-10-22T02:21:44.814Z,975.13
2022-10-22T02:22:44.771Z,975.14
2022-10-22T02:23:44.770Z,975.07
2022-10-22T02:24:44.748Z,975.01
2022-10-22T02:25:44.741Z,975.03
2022-10-22T02:26:44.725Z,975.03
2022-10-22T02:27:44.718Z,975.02
2022-10-22T02:28:44.687Z,975.08
2022-10-22T02:29:44.684Z,975.17
2022-10-22T02:30:44.666Z,975.16
2022-10-22T02:31:44.658Z,975.14
2022-10-22T02:32:44.638Z,975.18
2022-10-22T02:33:44.629Z,975.18
2022-10-22T02:34:44.616Z,975.26
2022-10-22T02:35:44.603Z,975.20
2022-10-22T02:36:46.851Z,975.19
2022-10-22T02:37:44.595Z,975.16
2022-10-22T02:38:44.556Z,975.16
2022-10-22T02:39:44.549Z,975.17
2022-10-22T02:40:44.524Z,975.14
2022-10-22T02:41:44.517Z,975.14
2022-10-22T02:42:44.504Z,975.18
2022-10-22T02:43:44.496Z,975.21
2022-10-22T02:44:44.474Z,975.25
2022-10-22T02:45:44.463Z,975.22
2022-10-22T02:46:44.444Z,975.23
2022-10-22T02:47:44.435Z,975.23
2022-10-22T02:48:44.424Z,975.31
2022-10-22T02:49:44.403Z,975.34
2022-10-22T02:50:44.391Z,975.42
2022-10-22T02:51:44.376Z,975.46
2022-10-22T02:52:44.369Z,975.56
2022-10-22T02:53:44.371Z,975.52
2022-10-22T02:54:44.342Z,975.46
2022-10-22T02:55:44.320Z,975.47
2022-10-22T02:56:44.310Z,975.45
2022-10-22T02:57:44.302Z,975.46
2022-10-22T02:58:44.287Z,975.54
2022-10-22T02:59:44.276Z,975.54
2022-10-22T03:00:44.282Z,975.58
2022-10-22T03:01:44.243Z,975.50
2022-10-22T03:02:44.231Z,975.47
2022-10-22T03:03:44.214Z,975.47
2022-10-22T03:04:44.200Z,975.51
2022-10-22T03:05:44.190Z,975.43
2022-10-22T03:06:44.178Z,975.40
2022-10-22T03:07:44.246Z,975.38
2022-10-22T03:08:44.209Z,975.39
2022-10-22T03:09:44.160Z,975.37
2022-10-22T03:10:44.132Z,975.36
2022-10-22T03:11:44.112Z,975.26
2022-10-22T03:12:44.095Z,975.28
2022-10-22T03:13:44.077Z,975.30
2022-10-22T03:14:44.067Z,975.27
2022-10-22T03:15:44.054Z,975.21
2022-10-22T03:16:44.040Z,975.12
2022-10-22T03:17:44.026Z,975.14
2022-10-22T03:18:44.012Z,975.09
2022-10-22T03:19:43.995Z,975.04
2022-10-22T03:20:43.986Z,975.00
2022-10-22T03:21:43.975Z,975.10
2022-10-22T03:22:43.961Z,975.07
2022-10-22T03:23:43.945Z,974.99
2022-10-22T03:24:43.937Z,974.97
2022-10-22T03:25:43.941Z,974.97
2022-10-22T03:26:43.910Z,974.98
2022-10-22T03:27:44.144Z,974.90
2022-10-22T03:28:43.879Z,974.88
2022-10-22T03:29:43.861Z,974.86
2022-10-22T03:30:43.846Z,974.84
2022-10-22T03:31:43.833Z,974.80
2022-10-22T03:32:43.822Z,974.76
2022-10-22T03:33:43.809Z,974.79
2022-10-22T03:34:43.797Z,974.72
2022-10-22T03:35:43.783Z,974.84
2022-10-22T03:36:43.772Z,974.86
2022-10-22T03:37:43.826Z,974.84
2022-10-22T03:38:43.741Z,974.84
2022-10-22T03:39:43.725Z,974.83
2022-10-22T03:40:43.711Z,974.78
2022-10-22T03:41:43.715Z,974.81
2022-10-22T03:42:43.684Z,974.76
2022-10-22T03:43:43.668Z,974.78
2022-10-22T03:44:43.660Z,974.77
2022-10-22T03:45:43.648Z,974.80
2022-10-22T03:46:43.634Z,974.80
2022-10-22T03:47:43.776Z,974.82
2022-10-22T03:48:43.610Z,974.90
2022-10-22T03:49:43.593Z,974.85
2022-10-22T03:50:43.579Z,974.88
2022-10-22T03:51:43.565Z,975.03
2022-10-22T03:52:43.555Z,975.03
2022-10-22T03:53:43.535Z,974.98
2022-10-22T03:54:43.532Z,974.98
2022-10-22T03:55:43.504Z,975.00
2022-10-22T03:56:43.493Z,975.01
2022-10-22T03:57:43.587Z,974.97
2022-10-22T03:58:43.467Z,974.91
2022-10-22T03:59:43.463Z,974.90
2022-10-22T04:00:43.511Z,974.87
2022-10-22T04:01:43.436Z,974.91
2022-10-22T04:02:43.417Z,975.04
2022-10-22T04:03:43.399Z,974.88
2022-10-22T04:04:43.388Z,974.88
2022-10-22T04:05:43.367Z,974.87
2022-10-22T04:06:43.359Z,974.85
2022-10-22T04:07:43.528Z,974.95
2022-10-22T04:08:43.382Z,974.94
2022-10-22T04:09:43.316Z,975.00
2022-10-22T04:10:43.308Z,975.07
2022-10-22T04:11:43.290Z,975.03
2022-10-22T04:12:43.289Z,975.12
2022-10-22T04:13:43.283Z,975.02
2022-10-22T04:14:43.252Z,974.99
2022-10-22T04:15:43.288Z,975.07
2022-10-22T04:16:43.223Z,975.04
2022-10-22T04:17:43.507Z,975.02
2022-10-22T04:18:43.194Z,975.02
2022-10-22T04:19:43.177Z,975.04
2022-10-22T04:20:43.164Z,975.06
2022-10-22T04:21:43.148Z,975.07
2022-10-22T04:22:43.138Z,975.04
2022-10-22T04:23:43.121Z,975.12
2022-10-22T04:24:43.389Z,975.12
2022-10-22T04:25:43.097Z,975.16
2022-10-22T04:26:43.089Z,975.19
2022-10-22T04:27:43.232Z,975.13
2022-10-22T04:28:43.062Z,975.12
2022-10-22T04:29:43.064Z,975.18
2022-10-22T04:30:43.033Z,975.23
2022-10-22T04:31:43.027Z,975.21
2022-10-22T04:32:43.006Z,975.21
2022-10-22T04:33:42.983Z,975.17
2022-10-22T04:34:42.975Z,975.12
2022-10-22T04:35:42.956Z,975.15
2022-10-22T04:36:42.948Z,975.14
2022-10-22T04:37:43.273Z,975.10
2022-10-22T04:38:42.921Z,975.10
2022-10-22T04:39:42.909Z,975.09
2022-10-22T04:40:42.892Z,975.07
2022-10-22T04:41:42.875Z,975.18
2022-10-22T04:42:42.864Z,975.15
2022-10-22T04:43:42.851Z,975.15
2022-10-22T04:44:42.836Z,975.08
2022-10-22T04:45:42.846Z,975.11
2022-10-22T04:46:42.810Z,975.13
2022-10-22T04:47:43.166Z,975.14
2022-10-22T04:48:42.781Z,975.17
2022-10-22T04:49:42.772Z,975.20
2022-10-22T04:50:42.758Z,975.21
2022-10-22T04:51:42.746Z,975.18
2022-10-22T04:52:42.729Z,975.19
2022-10-22T04:53:42.713Z,975.21
2022-10-22T04:54:42.795Z,975.19
2022-10-22T04:55:42.691Z,975.15
2022-10-22T04:56:42.670Z,975.20
2022-10-22T04:57:43.044Z,975.22
2022-10-22T04:58:42.644Z,975.16
2022-10-22T04:59:42.635Z,975.18
2022-10-22T05:00:42.682Z,975.28
2022-10-22T05:01:43.092Z,975.27
2022-10-22T05:02:42.590Z,975.33
2022-10-22T05:03:42.579Z,975.37
2022-10-22T05:04:42.561Z,975.37
2022-10-22T05:05:42.551Z,975.36
2022-10-22T05:06:42.538Z,975.40
2022-10-22T05:07:42.986Z,975.35
2022-10-22T05:08:42.589Z,975.35
2022-10-22T05:09:42.501Z,975.36
2022-10-22T05:10:42.480Z,975.37
2022-10-22T05:11:42.472Z,975.28
2022-10-22T05:12:42.454Z,975.38
2022-10-22T05:13:42.444Z,975.40
2022-10-22T05:14:44.683Z,975.43
2022-10-22T05:15:42.414Z,975.43
2022-10-22T05:16:42.448Z,975.46
2022-10-22T05:17:42.937Z,975.45
2022-10-22T05:18:42.369Z,975.50
2022-10-22T05:19:42.364Z,975.53
2022-10-22T05:20:42.341Z,975.56
2022-10-22T05:21:42.335Z,975.60
2022-10-22T05:22:42.318Z,975.58
2022-10-22T05:23:42.308Z,975.59
2022-10-22T05:24:42.291Z,975.54
2022-10-22T05:25:42.281Z,975.58
2022-10-22T05:26:42.265Z,975.57
2022-10-22T05:27:42.518Z,975.60
2022-10-22T05:28:42.235Z,975.61
2022-10-22T05:29:42.320Z,975.60
2022-10-22T05:30:42.206Z,975.60
2022-10-22T05:31:42.200Z,975.64
2022-10-22T05:32:42.179Z,975.66
2022-10-22T05:33:42.190Z,975.63
2022-10-22T05:34:42.151Z,975.69
2022-10-22T05:35:46.595Z,975.65
2022-10-22T05:36:42.126Z,975.62
2022-10-22T05:37:42.493Z,975.67
2022-10-22T05:38:42.101Z,975.72
2022-10-22T05:39:42.089Z,975.68
2022-10-22T05:40:42.073Z,975.73
2022-10-22T05:41:42.059Z,975.79
2022-10-22T05:42:42.433Z,975.80
2022-10-22T05:43:42.035Z,975.85
2022-10-22T05:44:42.013Z,975.89
2022-10-22T05:45:42.007Z,975.83
2022-10-22T05:46:41.989Z,975.82
2022-10-22T05:47:41.980Z,975.82
2022-10-22T05:48:41.962Z,975.83
2022-10-22T05:49:41.976Z,975.79
2022-10-22T05:50:41.934Z,975.75
2022-10-22T05:51:41.921Z,975.80
2022-10-22T05:52:42.364Z,975.82
2022-10-22T05:53:41.892Z,975.84
2022-10-22T05:54:41.899Z,975.89
2022-10-22T05:55:41.865Z,975.89
2022-10-22T05:56:41.849Z,975.86
2022-10-22T05:57:41.839Z,975.97
2022-10-22T05:58:41.819Z,975.83
2022-10-22T05:59:41.817Z,975.95
2022-10-22T06:00:41.794Z,975.93
2022-10-22T06:01:41.786Z,975.88
2022-10-22T06:02:42.057Z,976.00
2022-10-22T06:03:41.763Z,975.92
2022-10-22T06:04:41.748Z,975.86
2022-10-22T06:05:41.754Z,975.86
2022-10-22T06:06:41.711Z,975.85
2022-10-22T06:07:41.701Z,975.88
2022-10-22T06:08:41.718Z,975.95
2022-10-22T06:09:41.679Z,975.97
2022-10-22T06:10:41.662Z,976.06
2022-10-22T06:11:41.655Z,976.02
2022-10-22T06:12:42.042Z,976.03
2022-10-22T06:13:41.620Z,976.08
2022-10-22T06:14:41.605Z,976.13
2022-10-22T06:15:41.594Z,976.11
2022-10-22T06:16:41.575Z,976.16
2022-10-22T06:17:41.567Z,976.17
2022-10-22T06:18:41.552Z,976.13
2022-10-22T06:19:41.544Z,976.17
2022-10-22T06:20:41.526Z,976.19
2022-10-22T06:21:41.538Z,976.30
2022-10-22T06:22:41.747Z,976.27
2022-10-22T06:23:41.485Z,976.25
2022-10-22T06:24:42.963Z,976.27
2022-10-22T06:25:41.458Z,976.28
2022-10-22T06:26:41.440Z,976.31
2022-10-22T06:27:41.427Z,976.34
2022-10-22T06:28:41.414Z,976.38
2022-10-22T06:29:41.403Z,976.40
2022-10-22T06:30:43.057Z,976.42
2022-10-22T06:31:41.373Z,976.41
2022-10-22T06:32:41.677Z,976.39
2022-10-22T06:33:41.353Z,976.42
2022-10-22T06:34:41.334Z,976.50
2022-10-22T06:35:41.324Z,976.48
2022-10-22T06:37:41.647Z,976.53
2022-10-22T06:38:41.275Z,976.49
2022-10-22T06:39:41.277Z,976.52
2022-10-22T06:40:41.246Z,976.54
2022-10-22T06:41:41.242Z,976.48
2022-10-22T06:42:41.616Z,976.61
2022-10-22T06:43:41.216Z,976.65
2022-10-22T06:44:41.197Z,976.61
2022-10-22T06:45:41.182Z,976.68
2022-10-22T06:46:43.409Z,976.64
2022-10-22T06:47:41.521Z,976.67
2022-10-22T06:48:41.142Z,976.66
2022-10-22T06:49:41.138Z,976.66
2022-10-22T06:50:41.119Z,976.70
2022-10-22T06:51:41.108Z,976.67
2022-10-22T06:52:41.090Z,976.69
2022-10-22T06:53:41.100Z,976.70
2022-10-22T06:54:41.063Z,976.67
2022-10-22T06:55:41.049Z,976.68
2022-10-22T06:56:41.033Z,976.76
2022-10-22T06:57:41.424Z,976.73
2022-10-22T06:58:41.004Z,976.78
2022-10-22T06:59:40.994Z,976.76
2022-10-22T07:00:40.980Z,976.79
2022-10-22T07:01:41.068Z,976.86
2022-10-22T07:02:41.424Z,976.86
2022-10-22T07:03:40.940Z,976.89
2022-10-22T07:04:40.924Z,976.85
2022-10-22T07:05:40.919Z,976.88
2022-10-22T07:06:40.980Z,976.81
2022-10-22T07:07:40.894Z,976.89
2022-10-22T07:08:40.947Z,976.93
2022-10-22T07:09:40.894Z,976.94
2022-10-22T07:10:40.851Z,976.90
2022-10-22T07:11:40.860Z,976.90
2022-10-22T07:12:41.049Z,976.94
2022-10-22T07:13:40.807Z,976.89
2022-10-22T07:14:40.796Z,976.96
2022-10-22T07:15:40.784Z,976.96
2022-10-22T07:16:40.766Z,976.95
2022-10-22T07:18:40.746Z,976.96
2022-10-22T07:19:40.733Z,976.99
2022-10-22T07:20:40.714Z,977.01
2022-10-22T07:21:40.699Z,976.96
2022-10-22T07:22:40.915Z,976.94
2022-10-22T07:23:40.681Z,976.94
2022-10-22T07:24:40.655Z,976.93
2022-10-22T07:25:40.667Z,976.89
2022-10-22T07:26:40.627Z,976.91
2022-10-22T07:27:40.995Z,976.79
2022-10-22T07:28:40.601Z,976.81
2022-10-22T07:29:40.594Z,976.81
2022-10-22T07:30:40.573Z,976.86
2022-10-22T07:31:40.563Z,976.82
2022-10-22T07:32:40.548Z,976.90
2022-10-22T07:33:40.539Z,976.84
2022-10-22T07:34:43.083Z,976.80
2022-10-22T07:35:40.513Z,976.85
2022-10-22T07:36:40.495Z,976.84
2022-10-22T07:37:40.792Z,976.89
2022-10-22T07:38:40.463Z,976.90
2022-10-22T07:39:40.455Z,976.95
2022-10-22T07:40:40.436Z,976.95
2022-10-22T07:41:40.443Z,977.01
2022-10-22T07:42:40.410Z,977.05
2022-10-22T07:43:40.394Z,976.98
2022-10-22T07:44:40.377Z,977.06
2022-10-22T07:45:40.373Z,977.12
2022-10-22T07:46:40.355Z,977.16
2022-10-22T07:47:40.591Z,977.18
2022-10-22T07:48:40.327Z,977.12
2022-10-22T07:49:40.314Z,977.17
2022-10-22T07:50:40.374Z,977.15
2022-10-22T07:51:40.283Z,977.20
2022-10-22T07:52:40.539Z,977.28
2022-10-22T07:53:40.264Z,977.25
2022-10-22T07:54:40.245Z,977.15
2022-10-22T07:55:40.233Z,977.27
2022-10-22T07:56:40.225Z,977.16
2022-10-22T07:57:40.232Z,977.23
2022-10-22T07:58:40.190Z,977.26
2022-10-22T07:59:40.185Z,977.28
2022-10-22T08:00:40.164Z,977.25
2022-10-22T08:01:40.183Z,977.21
2022-10-22T08:02:40.454Z,977.23
2022-10-22T08:03:40.123Z,977.22
2022-10-22T08:04:40.105Z,977.22
2022-10-22T08:05:40.093Z,977.13
2022-10-22T08:06:42.478Z,977.20
2022-10-22T08:07:40.069Z,977.22
2022-10-22T08:08:40.114Z,977.19
2022-10-22T08:09:40.049Z,977.23
2022-10-22T08:10:40.027Z,977.18
2022-10-22T08:11:40.019Z,977.19
2022-10-22T08:12:40.285Z,977.18
2022-10-22T08:13:44.907Z,977.16
2022-10-22T08:14:39.973Z,977.16
2022-10-22T08:15:40.029Z,977.25
2022-10-22T08:16:39.945Z,977.17
2022-10-22T08:17:40.483Z,977.09
2022-10-22T08:18:39.915Z,977.17
2022-10-22T08:19:39.904Z,977.09
2022-10-22T08:20:39.893Z,977.13
2022-10-22T08:21:39.882Z,977.14
2022-10-22T08:22:39.867Z,977.15
2022-10-22T08:23:39.859Z,977.15
2022-10-22T08:24:39.838Z,977.10
2022-10-22T08:25:39.827Z,977.09
2022-10-22T08:26:39.807Z,977.06
2022-10-22T08:27:40.109Z,977.08
2022-10-22T08:28:39.780Z,977.15
2022-10-22T08:29:39.793Z,977.09
2022-10-22T08:30:39.754Z,977.06
2022-10-22T08:31:39.745Z,977.13
2022-10-22T08:32:39.727Z,977.18
2022-10-22T08:33:39.722Z,977.16
2022-10-22T08:34:39.705Z,977.13
2022-10-22T08:35:39.694Z,977.04
2022-10-22T08:36:39.678Z,977.12
2022-10-22T08:37:40.063Z,977.17
2022-10-22T08:38:39.652Z,977.18
2022-10-22T08:39:39.639Z,977.10
2022-10-22T08:40:39.676Z,977.03
2022-10-22T08:41:39.606Z,977.03
2022-10-22T08:42:40.020Z,977.07
2022-10-22T08:43:39.584Z,977.00
2022-10-22T08:44:39.569Z,976.96
2022-10-22T08:45:39.574Z,976.97
2022-10-22T08:46:39.539Z,976.94
2022-10-22T08:47:39.525Z,976.94
2022-10-22T08:48:39.513Z,977.05
2022-10-22T08:49:41.361Z,977.02
2022-10-22T08:50:39.488Z,977.00
2022-10-22T08:51:39.475Z,977.09
2022-10-22T08:52:39.753Z,977.11
2022-10-22T08:53:39.445Z,977.13
2022-10-22T08:54:39.436Z,977.16
2022-10-22T08:55:39.418Z,977.08
2022-10-22T08:56:39.408Z,977.09
2022-10-22T08:57:39.388Z,977.11
2022-10-22T08:58:39.378Z,977.16
2022-10-22T08:59:39.361Z,977.15
2022-10-22T09:00:39.354Z,977.22
2022-10-22T09:01:39.357Z,977.12
2022-10-22T09:02:39.732Z,977.24
2022-10-22T09:03:39.306Z,977.21
2022-10-22T09:04:39.297Z,977.27
2022-10-22T09:05:39.381Z,977.17
2022-10-22T09:06:39.278Z,977.18
2022-10-22T09:07:39.600Z,977.27
2022-10-22T09:08:39.341Z,977.23
2022-10-22T09:09:39.230Z,977.21
2022-10-22T09:10:39.221Z,977.28
2022-10-22T09:11:39.202Z,977.34
2022-10-22T09:12:39.196Z,977.33
2022-10-22T09:13:39.174Z,977.35
2022-10-22T09:14:39.166Z,977.29
2022-10-22T09:15:40.839Z,977.35
2022-10-22T09:16:39.136Z,977.29
2022-10-22T09:17:39.570Z,977.35
2022-10-22T09:18:39.109Z,977.28
2022-10-22T09:19:39.092Z,977.33
2022-10-22T09:20:39.080Z,977.30
2022-10-22T09:21:39.073Z,977.34
2022-10-22T09:22:39.072Z,977.31
2022-10-22T09:23:39.050Z,977.30
2022-10-22T09:24:39.036Z,977.39
2022-10-22T09:25:39.008Z,977.35
2022-10-22T09:26:39.000Z,977.30
2022-10-22T09:27:39.416Z,977.37
2022-10-22T09:28:39.006Z,977.38
2022-10-22T09:29:38.958Z,977.36
2022-10-22T09:30:38.953Z,977.32
2022-10-22T09:31:38.937Z,977.41
2022-10-22T09:32:39.181Z,977.42
2022-10-22T09:33:38.934Z,977.38
2022-10-22T09:34:38.896Z,977.36
2022-10-22T09:35:38.879Z,977.42
2022-10-22T09:36:39.221Z,977.35
2022-10-22T09:37:38.850Z,977.41
2022-10-22T09:38:38.838Z,977.38
2022-10-22T09:39:38.823Z,977.48
2022-10-22T09:40:38.815Z,977.52
2022-10-22T09:41:38.795Z,977.53
2022-10-22T09:42:39.118Z,977.53
2022-10-22T09:43:38.769Z,977.52
2022-10-22T09:44:38.756Z,977.52
2022-10-22T09:45:38.746Z,977.63
2022-10-22T09:46:38.733Z,977.63
2022-10-22T09:48:01.075Z,977.63
2022-10-22T09:48:39.740Z,977.61
2022-10-22T09:49:38.713Z,977.71
2022-10-22T09:50:38.683Z,977.60
2022-10-22T09:51:38.663Z,977.68
2022-10-22T09:52:38.965Z,977.72
2022-10-22T09:53:38.632Z,977.69
2022-10-22T09:54:38.623Z,977.73
2022-10-22T09:55:38.605Z,977.77
2022-10-22T09:56:38.595Z,977.75
2022-10-22T09:57:40.943Z,977.81
2022-10-22T09:58:38.573Z,977.80
2022-10-22T09:59:38.554Z,977.78
2022-10-22T10:00:38.551Z,977.79
2022-10-22T10:01:38.527Z,977.78
2022-10-22T10:02:39.247Z,977.75
2022-10-22T10:03:38.494Z,977.72
2022-10-22T10:04:38.486Z,977.76
2022-10-22T10:05:38.490Z,977.78
2022-10-22T10:06:38.459Z,977.79
2022-10-22T10:07:38.807Z,977.75
2022-10-22T10:08:38.492Z,977.86
2022-10-22T10:09:38.419Z,977.79
2022-10-22T10:10:38.409Z,977.80
2022-10-22T10:11:38.394Z,977.81
2022-10-22T10:12:38.454Z,977.77
2022-10-22T10:13:38.375Z,977.82
2022-10-22T10:14:38.353Z,977.80
2022-10-22T10:15:38.332Z,977.85
2022-10-22T10:16:38.321Z,977.82
2022-10-22T10:17:38.305Z,977.76
2022-10-22T10:18:38.294Z,977.89
2022-10-22T10:19:38.273Z,977.89
2022-10-22T10:20:38.268Z,977.91
2022-10-22T10:21:38.272Z,977.88
2022-10-22T10:22:38.240Z,977.86
2022-10-22T10:23:38.222Z,977.85
2022-10-22T10:24:38.209Z,977.85
2022-10-22T10:25:38.199Z,977.87
2022-10-22T10:26:38.188Z,977.94
2022-10-22T10:27:38.170Z,977.82
2022-10-22T10:28:38.161Z,977.85
2022-10-22T10:30:38.129Z,977.87
2022-10-22T10:31:38.113Z,977.88
2022-10-22T10:32:38.132Z,977.82
2022-10-22T10:33:38.089Z,977.84
2022-10-22T10:34:38.178Z,977.88
2022-10-22T10:35:38.064Z,977.82
2022-10-22T10:36:38.055Z,977.86
2022-10-22T10:37:38.061Z,977.96
2022-10-22T10:38:38.024Z,977.82
2022-10-22T10:39:38.013Z,977.86
2022-10-22T10:40:38.013Z,977.86
2022-10-22T10:41:38.079Z,977.83
2022-10-22T10:42:38.010Z,977.88
2022-10-22T10:43:37.947Z,977.95
2022-10-22T10:44:38.041Z,977.89
2022-10-22T10:45:37.932Z,977.95
2022-10-22T10:46:37.914Z,977.91
2022-10-22T10:47:37.939Z,977.89
2022-10-22T10:48:37.886Z,977.92
2022-10-22T10:49:37.877Z,977.93
2022-10-22T10:50:37.864Z,977.94
2022-10-22T10:51:37.846Z,977.95
2022-10-22T10:52:37.845Z,977.94
2022-10-22T10:53:37.842Z,977.90
2022-10-22T10:55:37.792Z,977.89
2022-10-22T10:56:39.236Z,977.86
2022-10-22T10:57:37.946Z,977.90
2022-10-22T10:58:37.749Z,977.84
2022-10-22T10:59:37.733Z,977.92
2022-10-22T11:00:37.808Z,977.86
2022-10-22T11:01:37.759Z,977.81
2022-10-22T11:02:37.738Z,977.93
2022-10-22T11:03:37.685Z,977.84
2022-10-22T11:04:37.669Z,977.93
2022-10-22T11:05:37.653Z,977.92
2022-10-22T11:06:37.647Z,977.96
2022-10-22T11:07:37.630Z,977.95
2022-10-22T11:08:37.646Z,977.95
2022-10-22T11:09:37.624Z,977.96
2022-10-22T11:10:37.598Z,977.85
2022-10-22T11:11:37.576Z,977.86
2022-10-22T11:12:37.796Z,977.87
2022-10-22T11:13:37.544Z,977.88
2022-10-22T11:14:37.535Z,977.88
2022-10-22T11:15:37.520Z,977.90
2022-10-22T11:16:37.507Z,977.89
2022-10-22T11:17:37.494Z,977.92
2022-10-22T11:18:37.483Z,977.99
2022-10-22T11:19:51.013Z,978.01
2022-10-22T11:20:38.469Z,977.95
2022-10-22T11:21:37.440Z,977.90
2022-10-22T11:22:37.445Z,977.96
2022-10-22T11:23:37.412Z,977.93
2022-10-22T11:24:37.429Z,977.99
2022-10-22T11:25:37.419Z,978.01
2022-10-22T11:26:37.379Z,977.93
2022-10-22T11:27:37.373Z,977.98
2022-10-22T11:28:37.361Z,977.94
2022-10-22T11:29:37.331Z,977.92
2022-10-22T11:30:37.330Z,977.94
2022-10-22T11:31:37.338Z,977.72
2022-10-22T11:32:37.291Z,977.76
2022-10-22T11:33:37.277Z,977.76
2022-10-22T11:34:37.267Z,977.75
2022-10-22T11:35:37.268Z,977.59
2022-10-22T11:36:37.244Z,977.47
2022-10-22T11:37:37.225Z,977.71
2022-10-22T11:38:37.214Z,977.50
2022-10-22T11:39:37.194Z,977.52
2022-10-22T11:40:37.235Z,977.44
2022-10-22T11:41:37.540Z,977.49
2022-10-22T11:42:37.155Z,977.37
2022-10-22T11:43:37.139Z,977.37
2022-10-22T11:44:37.131Z,977.32
2022-10-22T11:45:37.118Z,977.31
2022-10-22T11:46:37.109Z,977.35
2022-10-22T11:47:37.092Z,977.30
2022-10-22T11:48:37.085Z,977.27
2022-10-22T11:49:37.069Z,977.25
2022-10-22T11:50:37.059Z,977.25
2022-10-22T11:51:37.056Z,977.21
2022-10-22T11:52:37.027Z,977.16
2022-10-22T11:53:37.007Z,977.15
2022-10-22T11:54:37.001Z,977.17
2022-10-22T11:55:36.983Z,977.16
2022-10-22T11:56:36.973Z,977.10
2022-10-22T11:57:36.987Z,977.18
2022-10-22T11:58:36.954Z,977.15
2022-10-22T11:59:36.936Z,977.12
2022-10-22T12:00:36.926Z,977.17
2022-10-22T12:01:36.906Z,977.06
2022-10-22T12:02:36.895Z,977.08
2022-10-22T12:03:36.879Z,977.04
2022-10-22T12:04:36.922Z,977.03
2022-10-22T12:05:36.859Z,977.04
2022-10-22T12:06:36.852Z,977.04
2022-10-22T12:07:36.835Z,977.02
2022-10-22T12:08:36.891Z,977.03
2022-10-22T12:09:36.800Z,977.05
2022-10-22T12:10:36.791Z,977.06
2022-10-22T12:11:36.778Z,977.05
2022-10-22T12:12:36.769Z,977.07
2022-10-22T12:13:36.776Z,977.05
2022-10-22T12:14:36.794Z,977.04
2022-10-22T12:15:36.724Z,977.02
2022-10-22T12:16:56.101Z,977.01
2022-10-22T12:17:37.725Z,976.85
2022-10-22T12:18:36.694Z,976.97
2022-10-22T12:19:36.692Z,976.95
2022-10-22T12:20:36.672Z,976.95
2022-10-22T12:21:36.652Z,976.86
2022-10-22T12:22:36.651Z,976.93
2022-10-22T12:23:36.648Z,976.87
2022-10-22T12:24:36.620Z,976.89
2022-10-22T12:25:36.597Z,976.94
2022-10-22T12:26:36.593Z,976.97
2022-10-22T12:27:36.576Z,976.86
2022-10-22T12:28:36.564Z,976.85
2022-10-22T12:29:36.568Z,976.84
2022-10-22T12:30:36.538Z,976.75
2022-10-22T12:31:36.522Z,976.77
2022-10-22T12:32:36.513Z,976.78
2022-10-22T12:33:36.498Z,976.78
2022-10-22T12:34:36.493Z,976.73